Time;durP1;ratioP1;P1;durP2;ratioP2;P2;SDS_P1;SDS_P2;PMS_P1;PMS_P2;Temp;Humidity;BMP_temperature;BMP_pressure;BME280_temperature;BME280_humidity;BME280_pressure;Samples;Min_cycle;Max_cycle;Signal;HPM_P1;HPM_P2
2022/05/25 00:01:15;;;;;;;568.80;542.00;;;10.50;99.90;;;;;;5039159;28;20491;-79
2022/05/25 00:03:42;;;;;;;566.93;539.93;;;10.40;99.90;;;;;;5037748;28;20452;-82
2022/05/25 00:06:11;;;;;;;645.37;612.07;;;10.30;99.90;;;;;;5037137;28;20846;-80
2022/05/25 00:08:38;;;;;;;698.07;661.27;;;10.40;99.90;;;;;;5036754;28;20449;-80
2022/05/25 00:11:06;;;;;;;662.10;627.77;;;10.40;99.90;;;;;;5037435;28;20452;-80
2022/05/25 00:13:33;;;;;;;662.53;627.93;;;10.40;99.90;;;;;;5037113;28;20482;-80
2022/05/25 00:15:59;;;;;;;672.27;636.97;;;10.40;99.90;;;;;;5036275;28;20441;-80
2022/05/25 00:18:26;;;;;;;698.93;662.03;;;10.30;99.90;;;;;;5035279;28;20480;-80
2022/05/25 00:20:52;;;;;;;716.63;678.30;;;10.30;99.90;;;;;;5036093;28;20965;-80
2022/05/25 00:23:19;;;;;;;702.43;664.37;;;10.40;99.90;;;;;;5036935;28;20476;-80
2022/05/25 00:25:46;;;;;;;720.83;681.10;;;10.20;99.90;;;;;;5036483;28;20186;-80
2022/05/25 00:28:16;;;;;;;729.97;690.03;;;10.30;99.90;;;;;;5035431;28;20488;-81
2022/05/25 00:30:44;;;;;;;780.37;735.57;;;10.00;99.90;;;;;;5037488;28;20449;-80
2022/05/25 00:33:12;;;;;;;792.17;745.30;;;10.10;99.90;;;;;;5036106;28;20480;-80
2022/05/25 00:35:40;;;;;;;790.43;743.53;;;10.00;99.90;;;;;;5036557;28;20448;-80
2022/05/25 00:38:09;;;;;;;800.33;753.03;;;10.00;99.90;;;;;;5036662;28;20852;-81
2022/05/25 00:40:38;;;;;;;810.77;763.07;;;10.00;99.90;;;;;;5035752;28;20827;-80
2022/05/25 00:43:05;;;;;;;838.40;788.53;;;9.90;99.90;;;;;;5035768;28;20483;-80
2022/05/25 00:45:37;;;;;;;847.03;795.57;;;9.80;99.90;;;;;;5036543;28;20468;-80
2022/05/25 00:48:06;;;;;;;851.80;799.70;;;9.70;99.90;;;;;;5036981;28;20863;-80
2022/05/25 00:51:12;;;;;;;864.97;811.50;;;9.80;99.90;;;;;;5035631;28;20448;-80
2022/05/25 00:53:23;;;;;;;869.33;814.20;;;9.60;99.90;;;;;;5036357;28;20504;-80
2022/05/25 00:55:50;;;;;;;877.37;820.40;;;9.60;99.90;;;;;;5017154;28;20457;-80
2022/05/25 00:58:17;;;;;;;900.20;841.33;;;9.50;99.90;;;;;;5015168;28;20855;-79
2022/05/25 01:00:45;;;;;;;893.90;834.07;;;9.50;99.90;;;;;;5033970;28;20990;-80
2022/05/25 01:03:13;;;;;;;872.67;814.57;;;9.50;99.90;;;;;;5034993;28;20476;-80
2022/05/25 01:05:47;;;;;;;875.13;814.47;;;9.40;99.90;;;;;;5035159;28;20827;-80
2022/05/25 01:08:30;;;;;;;887.40;826.33;;;9.30;99.90;;;;;;5035203;28;20448;-80
2022/05/25 01:11:08;;;;;;;899.47;837.70;;;9.30;99.90;;;;;;5035226;28;20466;-80
2022/05/25 01:13:43;;;;;;;891.30;829.77;;;9.40;99.90;;;;;;5034931;28;20448;-80
2022/05/25 01:16:24;;;;;;;890.00;828.70;;;9.40;99.90;;;;;;5034326;28;20443;-80
2022/05/25 01:18:57;;;;;;;876.03;816.70;;;9.30;99.90;;;;;;5033728;28;20476;-80
2022/05/25 01:21:29;;;;;;;899.40;840.10;;;9.20;99.90;;;;;;5035642;28;20447;-80
2022/05/25 01:24:12;;;;;;;892.60;832.63;;;9.10;99.90;;;;;;5034525;28;20459;-80
2022/05/25 01:27:06;;;;;;;922.23;857.23;;;9.10;99.90;;;;;;5035088;28;20460;-80
2022/05/25 01:30:08;;;;;;;923.50;857.93;;;9.10;99.90;;;;;;5033204;28;20444;-80
2022/05/25 01:33:01;;;;;;;899.93;833.93;;;9.10;99.90;;;;;;5033939;28;20479;-80
2022/05/25 01:35:35;;;;;;;907.90;842.23;;;9.00;99.90;;;;;;5034893;28;20462;-79
2022/05/25 01:38:08;;;;;;;931.20;865.03;;;9.00;99.90;;;;;;5034582;28;20468;-80
2022/05/25 01:40:42;;;;;;;916.67;848.67;;;8.90;99.90;;;;;;5034761;28;20543;-80
2022/05/25 01:43:12;;;;;;;910.17;840.13;;;8.80;99.90;;;;;;5035051;28;20468;-80
2022/05/25 01:45:46;;;;;;;894.30;823.97;;;8.90;99.90;;;;;;5034223;28;20979;-80
2022/05/25 01:48:16;;;;;;;903.10;831.83;;;8.90;99.90;;;;;;5034101;28;20506;-79
2022/05/25 01:50:48;;;;;;;915.67;844.90;;;9.00;99.90;;;;;;5034064;28;20448;-80
2022/05/25 01:53:16;;;;;;;920.27;850.37;;;9.00;99.90;;;;;;5033815;28;20479;-80
2022/05/25 01:55:49;;;;;;;918.73;848.30;;;8.90;99.90;;;;;;5034078;28;20498;-80
2022/05/25 01:58:19;;;;;;;919.83;849.57;;;9.10;99.90;;;;;;5032832;28;20475;-80
2022/05/25 02:00:50;;;;;;;909.10;840.00;;;8.80;99.90;;;;;;5034042;28;20459;-80
2022/05/25 02:06:37;;;;;;;907.33;838.73;;;8.80;99.90;;;;;;5035089;28;20452;-79
2022/05/25 02:09:40;;;;;;;914.90;846.83;;;8.80;99.90;;;;;;5014228;28;20483;-80
2022/05/25 02:12:25;;;;;;;907.87;838.70;;;8.70;99.90;;;;;;5019158;28;20468;-80
2022/05/25 02:14:59;;;;;;;905.10;834.30;;;8.80;99.90;;;;;;5034951;28;20448;-80
2022/05/25 02:17:38;;;;;;;903.37;834.20;;;8.70;99.90;;;;;;5033515;28;20447;-80
2022/05/25 02:20:10;;;;;;;906.97;838.17;;;8.70;99.90;;;;;;5033015;28;21046;-80
2022/05/25 02:22:41;;;;;;;918.50;848.03;;;8.60;99.90;;;;;;5033664;28;20476;-81
2022/05/25 02:25:12;;;;;;;909.27;839.30;;;8.60;99.90;;;;;;5033005;28;20475;-80
2022/05/25 02:27:43;;;;;;;904.33;835.23;;;8.70;99.90;;;;;;5033486;28;20452;-80
2022/05/25 02:30:14;;;;;;;915.43;845.03;;;8.70;99.90;;;;;;5032962;28;20440;-82
2022/05/25 02:32:45;;;;;;;907.73;837.37;;;8.70;99.90;;;;;;5033873;28;20472;-80
2022/05/25 02:35:15;;;;;;;902.43;832.97;;;8.70;99.90;;;;;;5032746;28;21202;-81
2022/05/25 02:37:43;;;;;;;889.23;819.30;;;8.80;99.90;;;;;;5033523;28;20457;-80
2022/05/25 02:40:13;;;;;;;892.03;823.30;;;8.80;99.90;;;;;;5032483;28;20477;-79
2022/05/25 02:42:41;;;;;;;886.97;819.90;;;9.00;99.90;;;;;;5033765;28;20480;-80
2022/05/25 02:45:09;;;;;;;904.33;838.00;;;9.00;99.90;;;;;;5033454;28;20548;-80
2022/05/25 02:47:36;;;;;;;890.97;824.63;;;8.90;99.90;;;;;;5033675;28;20456;-78
2022/05/25 02:50:05;;;;;;;891.13;826.87;;;8.90;99.90;;;;;;5033412;28;20463;-80
2022/05/25 02:52:32;;;;;;;897.27;833.13;;;8.80;99.90;;;;;;5032520;28;20479;-80
2022/05/25 02:54:58;;;;;;;890.00;824.37;;;8.90;99.90;;;;;;5033626;28;20877;-80
2022/05/25 02:57:25;;;;;;;900.77;835.27;;;8.90;99.90;;;;;;5033298;28;20459;-80
2022/05/25 02:59:52;;;;;;;888.40;824.80;;;8.90;99.90;;;;;;5033386;28;20502;-80
2022/05/25 03:02:19;;;;;;;880.07;816.63;;;9.00;99.90;;;;;;5037077;28;20468;-80
2022/05/25 03:04:45;;;;;;;894.43;830.33;;;8.90;99.90;;;;;;5037748;28;20452;-80
2022/05/25 03:07:13;;;;;;;900.53;836.07;;;9.20;99.90;;;;;;5037107;28;20830;-82
2022/05/25 03:09:40;;;;;;;909.20;847.27;;;8.90;99.90;;;;;;5036722;28;20456;-80
2022/05/25 03:12:08;;;;;;;891.40;828.10;;;8.90;99.90;;;;;;5036823;28;20487;-79
2022/05/25 03:14:36;;;;;;;867.23;804.93;;;8.90;99.90;;;;;;5037347;28;20456;-80
2022/05/25 03:17:09;;;;;;;862.57;801.67;;;8.90;99.90;;;;;;5037051;28;20452;-80
2022/05/25 03:19:35;;;;;;;863.20;802.00;;;9.00;99.90;;;;;;5036156;28;20566;-80
2022/05/25 03:22:02;;;;;;;861.93;801.50;;;8.90;99.90;;;;;;5036799;28;20483;-81
2022/05/25 03:24:30;;;;;;;864.67;804.67;;;8.80;99.90;;;;;;5036996;28;20475;-80
2022/05/25 03:26:58;;;;;;;857.20;796.77;;;8.90;99.90;;;;;;5036778;28;20452;-80
2022/05/25 03:29:24;;;;;;;847.57;786.37;;;9.00;99.90;;;;;;5035753;28;20444;-80
2022/05/25 03:31:51;;;;;;;874.13;813.33;;;8.90;99.90;;;;;;5035370;28;20984;-79
2022/05/25 03:34:18;;;;;;;857.57;797.50;;;8.90;99.90;;;;;;5042879;28;20460;-80
2022/05/25 03:36:46;;;;;;;864.17;804.17;;;8.90;99.90;;;;;;5035044;28;20452;-81
2022/05/25 03:39:12;;;;;;;867.20;807.70;;;8.80;99.90;;;;;;5037326;28;20467;-80
2022/05/25 03:41:41;;;;;;;860.87;799.77;;;8.70;99.90;;;;;;5038506;28;20476;-79
2022/05/25 03:44:08;;;;;;;850.77;788.50;;;8.80;99.90;;;;;;5036871;28;20460;-81
2022/05/25 03:46:37;;;;;;;840.97;778.00;;;8.70;99.90;;;;;;5051213;28;20448;-82
2022/05/25 03:49:03;;;;;;;857.77;795.87;;;8.70;99.90;;;;;;5038469;28;20444;-80
2022/05/25 03:51:30;;;;;;;849.53;788.77;;;8.80;99.90;;;;;;5024140;28;20473;-81
2022/05/25 03:53:57;;;;;;;856.40;795.37;;;8.80;99.90;;;;;;5018943;28;20816;-80
2022/05/25 03:56:25;;;;;;;849.67;789.97;;;8.80;99.90;;;;;;5027600;28;20455;-82
2022/05/25 03:58:53;;;;;;;860.83;801.13;;;8.70;99.90;;;;;;5035188;28;20551;-80
2022/05/25 04:01:20;;;;;;;858.77;799.30;;;8.70;99.90;;;;;;5037019;28;20455;-81
2022/05/25 04:03:47;;;;;;;845.43;785.70;;;8.70;99.90;;;;;;5038378;28;20448;-82
2022/05/25 04:06:13;;;;;;;844.07;783.90;;;8.60;99.90;;;;;;5037076;28;20475;-80
2022/05/25 04:08:40;;;;;;;844.67;784.07;;;8.70;99.90;;;;;;5037569;28;20915;-80
2022/05/25 04:11:07;;;;;;;845.07;784.57;;;8.70;99.90;;;;;;5038006;28;20479;-80
2022/05/25 04:13:34;;;;;;;865.47;804.97;;;8.70;99.90;;;;;;5035075;28;20961;-80
2022/05/25 04:16:02;;;;;;;848.83;788.80;;;8.70;99.90;;;;;;5037593;28;20456;-83
2022/05/25 04:18:28;;;;;;;853.07;793.50;;;8.70;99.90;;;;;;5049232;28;20468;-83
2022/05/25 04:20:55;;;;;;;838.30;779.13;;;8.90;99.90;;;;;;5042144;28;20504;-83
2022/05/25 04:23:24;;;;;;;830.17;773.57;;;8.90;99.90;;;;;;5043576;28;20468;-80
2022/05/25 04:25:51;;;;;;;847.40;789.53;;;9.10;99.90;;;;;;5038673;28;20548;-80
2022/05/25 04:28:17;;;;;;;837.30;780.00;;;9.00;99.90;;;;;;5034025;28;20457;-80
2022/05/25 04:30:44;;;;;;;829.07;771.77;;;9.20;99.90;;;;;;5035410;28;20829;-80
2022/05/25 04:33:12;;;;;;;823.73;767.57;;;9.20;99.90;;;;;;5036938;28;20531;-80
2022/05/25 04:35:40;;;;;;;823.10;767.77;;;9.20;99.90;;;;;;5022551;28;20459;-80
2022/05/25 04:38:07;;;;;;;815.93;759.57;;;9.20;99.90;;;;;;5037785;28;20464;-83
2022/05/25 04:40:48;;;;;;;817.83;762.57;;;9.30;99.90;;;;;;5047939;28;20478;-81
2022/05/25 04:43:18;;;;;;;807.57;753.57;;;9.40;99.90;;;;;;5035085;28;20467;-82
2022/05/25 04:45:47;;;;;;;814.23;760.73;;;9.50;99.90;;;;;;5036455;28;20449;-80
2022/05/25 04:48:23;;;;;;;793.63;743.43;;;9.50;99.90;;;;;;5037252;28;20444;-82
2022/05/25 04:50:53;;;;;;;794.33;743.60;;;9.50;99.90;;;;;;5038498;28;20448;-81
2022/05/25 04:53:30;;;;;;;800.17;750.23;;;9.60;99.90;;;;;;5036517;28;20474;-80
2022/05/25 04:58:45;;;;;;;783.33;735.43;;;9.70;99.90;;;;;;5037114;28;20442;-80
2022/05/25 05:01:13;;;;;;;778.00;731.10;;;9.80;99.90;;;;;;5037108;28;20457;-80
2022/05/25 05:03:42;;;;;;;732.47;691.37;;;10.00;99.90;;;;;;5037204;28;20565;-82
2022/05/25 05:06:10;;;;;;;719.30;680.10;;;10.00;99.90;;;;;;5036749;28;20462;-80
2022/05/25 05:08:38;;;;;;;695.90;659.30;;;10.10;99.90;;;;;;5018220;28;20449;-80
2022/05/25 05:11:09;;;;;;;665.93;631.83;;;10.20;99.90;;;;;;5031660;28;20551;-80
2022/05/25 05:13:36;;;;;;;659.37;626.97;;;10.20;99.90;;;;;;5037929;28;20953;-80
2022/05/25 05:16:06;;;;;;;640.43;609.73;;;10.30;99.90;;;;;;5037995;28;20452;-80
2022/05/25 05:18:33;;;;;;;607.33;579.77;;;10.40;99.90;;;;;;5036842;28;20519;-81
2022/05/25 05:21:02;;;;;;;638.20;606.80;;;10.50;99.90;;;;;;5041430;28;20472;-81
2022/05/25 05:23:29;;;;;;;314.13;301.43;;;10.80;99.90;;;;;;5035404;28;20506;-81
2022/05/25 05:25:55;;;;;;;89.73;85.27;;;11.30;99.90;;;;;;5036645;28;20452;-84
2022/05/25 05:28:31;;;;;;;11.93;10.73;;;11.80;99.90;;;;;;5034728;28;20452;-81
2022/05/25 05:30:59;;;;;;;8.20;4.43;;;12.50;99.90;;;;;;5036669;28;20447;-81
2022/05/25 05:33:27;;;;;;;7.47;3.53;;;12.90;99.90;;;;;;5034246;28;20479;-81
2022/05/25 05:35:57;;;;;;;5.37;2.90;;;13.50;99.90;;;;;;5036716;28;20456;-81
2022/05/25 05:38:27;;;;;;;8.43;3.33;;;13.60;98.00;;;;;;5035326;28;20453;-81
2022/05/25 05:40:54;;;;;;;11.47;3.73;;;13.90;94.10;;;;;;5035999;28;21096;-82
2022/05/25 05:43:21;;;;;;;7.00;3.57;;;14.30;90.80;;;;;;5034855;28;20472;-81
2022/05/25 05:45:48;;;;;;;11.73;3.03;;;14.40;87.20;;;;;;5034342;28;20458;-82
2022/05/25 05:48:19;;;;;;;8.00;3.10;;;14.80;84.20;;;;;;5036885;28;20460;-85
2022/05/25 05:50:49;;;;;;;8.30;3.40;;;15.00;81.40;;;;;;5037153;28;20499;-81
2022/05/25 05:53:16;;;;;;;8.37;3.40;;;14.90;76.40;;;;;;5036592;28;20471;-81
2022/05/25 05:55:47;;;;;;;7.90;2.97;;;15.40;76.40;;;;;;5035995;28;20465;-82
2022/05/25 05:58:14;;;;;;;5.87;3.27;;;15.70;72.90;;;;;;5031666;28;20552;-81
2022/05/25 06:00:42;;;;;;;6.40;2.73;;;15.90;69.30;;;;;;5034428;28;20531;-81
2022/05/25 06:03:09;;;;;;;6.23;2.70;;;16.00;65.40;;;;;;5032907;28;21047;-82
2022/05/25 06:05:36;;;;;;;7.13;2.97;;;16.30;64.60;;;;;;5030006;28;20459;-82
2022/05/25 06:08:08;;;;;;;6.20;3.13;;;16.30;61.90;;;;;;5033744;28;20459;-81
2022/05/25 06:10:35;;;;;;;5.63;2.10;;;16.30;61.40;;;;;;5034228;28;20450;-82
2022/05/25 06:13:04;;;;;;;6.00;2.47;;;16.20;60.90;;;;;;5033178;28;20903;-81
2022/05/25 06:20:59;;;;;;;6.07;2.27;;;16.20;58.50;;;;;;5033399;28;20467;-82
2022/05/25 06:23:26;;;;;;;5.33;2.40;;;16.40;57.80;;;;;;5033016;28;20475;-81
2022/05/25 06:25:53;;;;;;;6.37;1.80;;;16.50;58.60;;;;;;5032868;28;21034;-83
2022/05/25 06:28:21;;;;;;;7.13;2.73;;;16.50;57.80;;;;;;5028288;28;20455;-82
2022/05/25 06:30:48;;;;;;;5.10;1.90;;;16.20;56.90;;;;;;5032078;28;20448;-81
2022/05/25 06:33:15;;;;;;;4.70;1.90;;;16.30;57.90;;;;;;5032464;28;20955;-82
2022/05/25 06:35:41;;;;;;;8.20;2.00;;;16.10;57.90;;;;;;5032779;28;20450;-82
2022/05/25 06:38:08;;;;;;;5.60;1.70;;;16.30;56.40;;;;;;5033913;28;20456;-82
2022/05/25 06:40:35;;;;;;;6.90;2.00;;;16.40;55.30;;;;;;5034260;28;20479;-81
2022/05/25 06:43:02;;;;;;;5.50;1.77;;;16.50;53.80;;;;;;5034314;28;20472;-83
2022/05/25 06:45:30;;;;;;;5.20;1.53;;;16.80;55.90;;;;;;5033142;28;20449;-82
2022/05/25 06:47:56;;;;;;;5.93;2.17;;;17.00;55.10;;;;;;5034019;28;20452;-83
2022/05/25 06:50:25;;;;;;;5.73;2.07;;;17.10;50.50;;;;;;5034752;28;20449;-82
2022/05/25 06:52:52;;;;;;;4.83;1.70;;;17.20;51.00;;;;;;5035543;28;20473;-82
2022/05/25 06:55:19;;;;;;;7.00;2.00;;;17.30;49.90;;;;;;5036193;28;20902;-83
2022/05/25 06:57:46;;;;;;;9.73;1.60;;;17.60;48.80;;;;;;5036421;28;20857;-82
2022/05/25 07:00:13;;;;;;;4.93;1.60;;;17.80;45.30;;;;;;5036080;28;20478;-82
2022/05/25 07:02:41;;;;;;;4.50;1.60;;;17.90;45.10;;;;;;5036527;28;20488;-83
2022/05/25 07:05:09;;;;;;;5.00;1.60;;;18.00;43.70;;;;;;5036948;28;20459;-83
2022/05/25 07:07:38;;;;;;;4.30;1.40;;;18.00;42.50;;;;;;5036651;28;20462;-83
2022/05/25 07:10:06;;;;;;;4.13;1.17;;;18.10;43.30;;;;;;5035777;28;20514;-83
2022/05/25 07:12:32;;;;;;;4.13;1.23;;;17.80;37.40;;;;;;5036171;28;21314;-83
2022/05/25 07:14:59;;;;;;;3.70;1.03;;;17.90;41.60;;;;;;5028884;28;20457;-83
2022/05/25 07:17:30;;;;;;;5.00;1.30;;;17.90;38.00;;;;;;5036575;28;20922;-83
2022/05/25 07:19:58;;;;;;;4.97;1.40;;;17.60;36.90;;;;;;5034441;28;20563;-81
2022/05/25 07:22:25;;;;;;;4.70;1.10;;;17.50;40.30;;;;;;5037243;28;20479;-82
2022/05/25 07:24:52;;;;;;;3.90;1.10;;;17.50;37.30;;;;;;5035776;28;20475;-83
2022/05/25 07:27:19;;;;;;;3.40;0.73;;;17.80;41.40;;;;;;5035988;28;20459;-82
2022/05/25 07:29:48;;;;;;;4.50;0.90;;;17.90;35.50;;;;;;5034494;28;20473;-82
2022/05/25 07:32:15;;;;;;;4.23;1.30;;;17.70;33.10;;;;;;5035508;28;20501;-83
2022/05/25 07:34:46;;;;;;;4.53;0.90;;;18.10;33.50;;;;;;5036615;28;20512;-83
2022/05/25 07:37:17;;;;;;;3.80;1.13;;;18.30;29.60;;;;;;5036704;28;20452;-84
2022/05/25 07:39:48;;;;;;;5.87;0.90;;;18.20;28.20;;;;;;5036014;28;20973;-83
2022/05/25 07:42:17;;;;;;;4.50;0.97;;;18.10;29.70;;;;;;5036342;28;20635;-82
2022/05/25 07:44:47;;;;;;;4.27;0.90;;;18.50;30.00;;;;;;5027201;28;20499;-83
2022/05/25 07:47:19;;;;;;;5.17;0.80;;;18.20;28.10;;;;;;5036774;28;20910;-84
2022/05/25 07:49:46;;;;;;;5.40;1.60;;;18.40;28.50;;;;;;5038396;28;20464;-84
2022/05/25 07:52:14;;;;;;;3.70;0.83;;;18.50;28.30;;;;;;5039670;28;20227;-81
2022/05/25 07:54:41;;;;;;;4.30;0.80;;;18.40;25.40;;;;;;5037653;28;20459;-80
2022/05/25 07:57:08;;;;;;;3.83;0.80;;;18.40;25.90;;;;;;5038129;28;20491;-82
2022/05/25 07:59:35;;;;;;;4.73;0.90;;;18.40;22.60;;;;;;5037788;28;20454;-81
2022/05/25 08:07:39;;;;;;;4.13;0.90;;;18.50;25.10;;;;;;5038010;28;20599;-80
2022/05/25 08:10:10;;;;;;;4.10;1.07;;;19.00;28.00;;;;;;5037453;28;20488;-81
2022/05/25 08:12:38;;;;;;;3.70;1.00;;;18.80;24.10;;;;;;5038420;28;21032;-81
2022/05/25 08:15:07;;;;;;;3.40;0.60;;;19.30;25.40;;;;;;5038473;28;20456;-82
2022/05/25 08:17:34;;;;;;;3.80;0.90;;;19.40;22.80;;;;;;5037951;28;20457;-81
2022/05/25 08:20:03;;;;;;;4.10;0.80;;;19.80;23.90;;;;;;5038822;28;20469;-80
2022/05/25 08:22:31;;;;;;;3.60;0.83;;;19.70;21.90;;;;;;5044960;28;20471;-80
2022/05/25 08:25:00;;;;;;;4.03;0.90;;;19.70;19.50;;;;;;5042155;28;20474;-81
2022/05/25 08:27:27;;;;;;;5.93;0.87;;;19.70;15.50;;;;;;5037907;28;20455;-81
2022/05/25 08:29:58;;;;;;;3.50;0.73;;;19.50;17.00;;;;;;5044524;28;20457;-80
2022/05/25 08:32:27;;;;;;;4.97;0.90;;;19.60;17.80;;;;;;5046377;28;20572;-80
2022/05/25 08:34:53;;;;;;;5.70;0.87;;;19.70;15.30;;;;;;5036500;28;20469;-81
2022/05/25 08:37:20;;;;;;;5.13;0.90;;;19.70;17.50;;;;;;5036664;28;20456;-81
2022/05/25 08:39:52;;;;;;;3.80;0.80;;;19.70;16.60;;;;;;5036564;28;20454;-81
2022/05/25 08:42:24;;;;;;;4.63;0.90;;;20.00;15.00;;;;;;5036562;28;20478;-80
2022/05/25 08:44:54;;;;;;;4.73;0.80;;;19.80;12.10;;;;;;5037050;28;20454;-82
2022/05/25 08:47:20;;;;;;;3.63;0.80;;;20.20;15.40;;;;;;5035533;28;20461;-82
2022/05/25 08:49:49;;;;;;;4.53;0.83;;;20.80;14.80;;;;;;5034334;28;20456;-79
2022/05/25 08:52:22;;;;;;;3.70;0.77;;;20.50;14.50;;;;;;5036052;28;20475;-81
2022/05/25 08:54:49;;;;;;;9.63;1.63;;;20.90;17.90;;;;;;5036250;28;20458;-81
2022/05/25 08:57:23;;;;;;;3.70;0.80;;;20.50;12.60;;;;;;5036074;28;20461;-81
2022/05/25 08:59:53;;;;;;;3.90;0.90;;;20.20;12.40;;;;;;5035639;28;20461;-81
2022/05/25 09:02:28;;;;;;;4.20;1.10;;;20.80;11.30;;;;;;5044444;28;21015;-82
2022/05/25 09:05:02;;;;;;;7.10;0.77;;;21.20;13.10;;;;;;5044001;28;20443;-81
2022/05/25 09:07:36;;;;;;;3.40;0.70;;;21.20;12.00;;;;;;5042694;28;20455;-81
2022/05/25 09:10:04;;;;;;;4.40;0.80;;;20.70;11.20;;;;;;5043619;28;20927;-81
2022/05/25 09:12:37;;;;;;;4.10;0.80;;;20.40;12.30;;;;;;5048611;28;20483;-79
2022/05/25 09:15:09;;;;;;;4.23;0.90;;;20.80;13.40;;;;;;5048419;28;20442;-82
2022/05/25 09:17:43;;;;;;;4.00;0.83;;;20.80;8.90;;;;;;5048632;28;20443;-80
2022/05/25 09:20:14;;;;;;;3.60;0.87;;;21.10;13.00;;;;;;5046543;28;20810;-80
2022/05/25 09:22:42;;;;;;;3.60;0.80;;;21.70;8.80;;;;;;5047352;28;20475;-79
2022/05/25 09:25:15;;;;;;;3.60;0.70;;;21.80;8.80;;;;;;5047897;28;20872;-79
2022/05/25 09:27:47;;;;;;;3.97;0.93;;;21.60;7.60;;;;;;5047198;28;20483;-81
2022/05/25 09:30:18;;;;;;;4.10;0.80;;;20.90;9.40;;;;;;5046487;28;20466;-82
2022/05/25 09:32:52;;;;;;;3.60;0.80;;;21.30;5.50;;;;;;5044979;28;20475;-80
2022/05/25 09:35:26;;;;;;;3.67;0.87;;;21.90;11.10;;;;;;5046744;28;20446;-80
2022/05/25 09:38:07;;;;;;;3.70;0.80;;;22.20;8.00;;;;;;5044575;28;20470;-80
2022/05/25 09:40:37;;;;;;;3.83;0.77;;;22.20;7.10;;;;;;5045287;28;20459;-82
2022/05/25 09:43:09;;;;;;;6.13;0.80;;;22.20;6.20;;;;;;5041965;28;20470;-82
2022/05/25 09:45:43;;;;;;;4.53;0.80;;;22.50;6.00;;;;;;5044807;28;20457;-83
2022/05/25 09:48:16;;;;;;;3.80;0.83;;;22.60;6.40;;;;;;5045733;28;20456;-82
2022/05/25 09:50:45;;;;;;;3.57;0.80;;;21.70;3.80;;;;;;5044634;28;20475;-82
2022/05/25 09:53:15;;;;;;;3.50;0.70;;;21.50;5.60;;;;;;5044017;28;20494;-81
2022/05/25 09:55:45;;;;;;;5.10;0.90;;;21.60;6.40;;;;;;5037124;28;20462;-81
2022/05/25 09:58:25;;;;;;;3.60;0.80;;;22.20;3.40;;;;;;5032892;28;20985;-84
2022/05/25 10:00:57;;;;;;;3.80;0.70;;;22.00;2.10;;;;;;5036925;28;20440;-81
2022/05/25 10:03:36;;;;;;;3.73;0.80;;;21.90;4.90;;;;;;5036723;28;21000;-82
2022/05/25 10:06:20;;;;;;;4.27;0.93;;;22.30;3.60;;;;;;5034672;28;20455;-81
2022/05/25 10:08:50;;;;;;;4.90;1.10;;;22.50;3.90;;;;;;5034503;28;20458;-80
2022/05/25 10:11:30;;;;;;;11.87;0.80;;;21.90;1.10;;;;;;5032796;28;21325;-79
2022/05/25 10:14:16;;;;;;;3.50;0.77;;;21.70;1.00;;;;;;5035170;28;20514;-79
2022/05/25 10:16:43;;;;;;;4.33;0.73;;;22.00;1.90;;;;;;5035837;28;20452;-82
2022/05/25 10:22:44;;;;;;;8.80;0.97;;;22.70;1.00;;;;;;5025334;28;20476;-83
2022/05/25 10:25:25;;;;;;;3.70;0.80;;;23.60;1.40;;;;;;5035220;28;20478;-84
2022/05/25 10:27:53;;;;;;;4.07;0.67;;;23.70;1.00;;;;;;5036261;28;20476;-82
2022/05/25 10:38:51;;;;;;;4.63;1.10;;;24.40;1.00;;;;;;5036545;28;20447;-84
2022/05/25 10:41:39;;;;;;;4.40;1.10;;;23.70;1.00;;;;;;5034143;28;20440;-81
2022/05/25 10:44:13;;;;;;;4.30;1.00;;;23.50;1.00;;;;;;5035370;28;20448;-81
2022/05/25 10:46:52;;;;;;;7.60;0.90;;;23.90;1.00;;;;;;5026882;28;20456;-81
2022/05/25 10:49:25;;;;;;;3.80;0.90;;;23.30;1.00;;;;;;5033542;28;20459;-81
2022/05/25 10:51:59;;;;;;;6.77;0.90;;;23.30;1.00;;;;;;5035370;28;20478;-82
2022/05/25 10:54:50;;;;;;;6.03;0.90;;;23.00;1.00;;;;;;5035962;28;20455;-81
2022/05/25 10:57:39;;;;;;;3.90;0.80;;;23.30;1.00;;;;;;5033655;28;20452;-81
2022/05/25 11:00:11;;;;;;;4.00;0.93;;;23.40;1.00;;;;;;5037480;28;20460;-82
2022/05/25 11:03:08;;;;;;;3.70;0.80;;;23.40;1.00;;;;;;5039972;28;20468;-83
2022/05/25 11:05:46;;;;;;;4.30;0.93;;;24.20;1.00;;;;;;5039961;28;20948;-82
2022/05/25 11:08:27;;;;;;;5.70;1.00;;;22.30;1.00;;;;;;5035626;28;20819;-81
2022/05/25 11:11:03;;;;;;;4.80;0.90;;;22.60;1.00;;;;;;5036287;28;20476;-85
2022/05/25 11:14:14;;;;;;;3.70;0.90;;;22.50;1.00;;;;;;5033067;28;20502;-83
2022/05/25 11:16:55;;;;;;;6.70;0.93;;;21.50;1.00;;;;;;4976857;28;20454;-80
2022/05/25 11:19:59;;;;;;;4.13;0.80;;;20.70;1.00;;;;;;5022922;28;20979;-81
2022/05/25 11:22:41;;;;;;;3.53;0.70;;;21.60;1.00;;;;;;5024458;28;20473;-85
2022/05/25 11:25:36;;;;;;;3.80;0.90;;;23.00;1.00;;;;;;5035440;28;20535;-85
2022/05/25 11:28:18;;;;;;;3.60;0.70;;;23.40;1.00;;;;;;5013151;28;20453;-84
2022/05/25 11:31:11;;;;;;;4.00;0.80;;;23.50;1.00;;;;;;5030561;28;20458;-87
2022/05/25 11:34:01;;;;;;;4.47;1.00;;;23.70;1.00;;;;;;5035683;28;20451;-84
2022/05/25 11:36:42;;;;;;;4.53;0.80;;;24.70;1.00;;;;;;5035837;28;20448;-84
2022/05/25 11:39:17;;;;;;;4.13;0.80;;;24.70;1.00;;;;;;5035031;28;20451;-86
2022/05/25 11:41:55;;;;;;;5.10;0.87;;;23.40;1.00;;;;;;5035635;28;20464;-86
2022/05/25 11:44:44;;;;;;;3.60;0.80;;;23.50;1.00;;;;;;5039665;28;20451;-82
2022/05/25 11:47:23;;;;;;;3.70;0.80;;;24.00;1.00;;;;;;5041560;28;20448;-82
2022/05/25 11:50:08;;;;;;;5.47;1.03;;;24.80;1.00;;;;;;5040855;28;20826;-82
2022/05/25 11:52:53;;;;;;;5.30;0.90;;;26.20;1.00;;;;;;5040692;28;20506;-82
2022/05/25 11:55:31;;;;;;;4.00;0.83;;;26.20;1.00;;;;;;5024228;28;20449;-82
2022/05/25 12:01:46;;;;;;;6.83;1.10;;;26.90;1.00;;;;;;4996919;28;20453;-82
2022/05/25 12:04:38;;;;;;;3.80;1.00;;;26.70;1.00;;;;;;5029235;28;20513;-85
2022/05/25 12:07:22;;;;;;;4.20;0.97;;;27.70;1.00;;;;;;5040036;28;20542;-82
2022/05/25 12:10:16;;;;;;;3.70;0.80;;;27.80;1.00;;;;;;5041877;28;20456;-82
2022/05/25 12:12:48;;;;;;;4.70;0.97;;;26.20;1.00;;;;;;5040462;28;20479;-81
2022/05/25 12:15:22;;;;;;;4.30;0.70;;;27.10;1.00;;;;;;5040893;28;20429;-82
2022/05/25 12:18:02;;;;;;;4.30;0.90;;;26.40;1.00;;;;;;5041266;28;20448;-81
2022/05/25 12:20:34;;;;;;;4.63;0.60;;;25.70;1.00;;;;;;5037832;28;20448;-82
2022/05/25 12:23:06;;;;;;;4.17;0.90;;;25.80;1.00;;;;;;5041433;28;20488;-82
2022/05/25 12:25:37;;;;;;;4.13;0.80;;;26.20;1.00;;;;;;5040254;28;20864;-81
2022/05/25 12:28:05;;;;;;;3.60;0.70;;;25.70;1.00;;;;;;5042528;28;20451;-81
2022/05/25 12:30:36;;;;;;;4.97;0.83;;;26.40;1.00;;;;;;5040574;28;20448;-81
2022/05/25 12:33:06;;;;;;;3.70;0.90;;;27.40;1.00;;;;;;5038652;28;20438;-80
2022/05/25 12:35:35;;;;;;;3.70;0.67;;;27.30;1.00;;;;;;5039381;28;20953;-81
2022/05/25 12:38:06;;;;;;;3.50;0.70;;;26.00;1.00;;;;;;5036968;28;20456;-81
2022/05/25 12:40:43;;;;;;;5.30;0.70;;;26.80;1.00;;;;;;5035289;28;20568;-81
2022/05/25 12:43:50;;;;;;;4.67;0.80;;;27.70;1.00;;;;;;5026253;28;20247;-81
2022/05/25 12:49:10;;;;;;;4.03;0.80;;;27.20;1.00;;;;;;5019078;28;20460;-80
2022/05/25 12:51:39;;;;;;;10.53;1.70;;;25.90;1.00;;;;;;5035654;28;20529;-81
2022/05/25 12:54:20;;;;;;;4.47;0.80;;;26.30;1.00;;;;;;5037077;28;20444;-81
2022/05/25 12:56:49;;;;;;;5.63;0.97;;;26.20;1.00;;;;;;5036780;28;20448;-81
2022/05/25 12:59:30;;;;;;;3.50;0.70;;;26.70;1.00;;;;;;5035950;28;20828;-80
2022/05/25 13:02:22;;;;;;;4.10;0.80;;;27.00;1.00;;;;;;5037145;28;20487;-79
2022/05/25 13:04:52;;;;;;;4.13;0.70;;;26.40;1.00;;;;;;5037503;28;20427;-83
2022/05/25 13:07:39;;;;;;;3.70;0.70;;;27.30;1.00;;;;;;5040024;28;20523;-84
2022/05/25 13:10:21;;;;;;;4.73;0.80;;;28.80;1.00;;;;;;5038985;28;20437;-84
2022/05/25 13:12:52;;;;;;;4.67;1.03;;;28.40;1.00;;;;;;5039816;28;20544;-82
2022/05/25 13:15:41;;;;;;;9.70;0.90;;;27.10;1.00;;;;;;5040453;28;20455;-84
2022/05/25 13:18:09;;;;;;;12.67;1.10;;;24.50;1.00;;;;;;5034957;28;20956;-83
2022/05/25 13:20:59;;;;;;;3.60;0.80;;;24.60;1.00;;;;;;5040000;28;20502;-83
2022/05/25 13:24:14;;;;;;;3.77;0.73;;;25.40;1.00;;;;;;5041152;28;20491;-83
2022/05/25 13:26:55;;;;;;;4.00;1.00;;;26.50;1.00;;;;;;5040935;28;20448;-83
2022/05/25 13:29:32;;;;;;;4.90;0.90;;;26.50;1.00;;;;;;5042368;28;20534;-83
2022/05/25 13:32:09;;;;;;;4.30;0.93;;;25.50;1.00;;;;;;5046409;28;20535;-84
2022/05/25 13:34:36;;;;;;;3.70;0.80;;;24.20;1.00;;;;;;5048636;28;20543;-84
2022/05/25 13:37:29;;;;;;;6.53;0.90;;;24.50;1.00;;;;;;5047581;28;20459;-81